Brownsville, TX (78520)

6:12 PM CST on December 10, 2016 (GMT -0600)
West Brownsville | | Change Station

Elev 35 ft 25.92 °N, 97.52 °W | Updated 11 minutes ago

Overcast
Overcast
53.1 °F
Feels Like 53.1 °F
N
2.0
Wind Variable Wind from NNE
Gusts 6.0 mph

Today
High -- | Low -- °F
--% Chance of Precip.
Yesterday
High -- | Low -- °F
Precip. -- in
Pressure 30.23 in
Visibility 10.0 miles
Clouds Scattered Clouds 1200 ft
Mostly Cloudy 3200 ft
Overcast 3900 ft
Dew Point 50 °F
Humidity 90%
Rainfall 0.00 in
Snow Depth Not available.
7:06 AM 5:39 PM
Waxing Gibbous, 87% visible
SPECI KBRO 110003Z 01006KT 10SM -RA SCT012 BKN032 OVC039 12/10 A3023 RMK AO2 P0000 T01220100
Pressure 30.23 in
Visibility 10.0 miles
Clouds Scattered Clouds 1200 ft
Mostly Cloudy 3200 ft
Overcast 3900 ft
Dew Point 50 °F
Humidity 90%
Rainfall 0.00 in
Snow Depth Not available.
7:06 AM 5:39 PM
Waxing Gibbous, 87% visible
SPECI KBRO 110003Z 01006KT 10SM -RA SCT012 BKN032 OVC039 12/10 A3023 RMK AO2 P0000 T01220100

10-Day Weather Forecast

Almanac

Astronomy

Dec. 10, 2016 Rise Set
Actual Time
Civil Twilight
Nautical Twilight
Astronomical Twilight
Moon
Length of Visible Light
Length of Day
Tomorrow will be .
, % of the Moon is Illuminated

Today's Extremes

State Highs State Lows

Community

WunderPhotos

Upload Photos

1,956,680 photos uploaded!

WunderBlog® & News

Nearby

Air Quality

  Air Quality AQ Index Pollutant
Not available.

Snow Depth

Station Depth Elevation

Earthquake Activity

City Distance Mag. Time & Date
Minimum magnitude displayed is 2.5.

Coastal Water Temperatures

Place Temperature

Stations

Nearby Weather Stations

Station Location Temp. Windchill Dew Point Humidity Wind Precip. Elev Updated Type
                   

Watches & Warnings

There are currently no watches in effect.